Time;durP1;ratioP1;P1;durP2;ratioP2;P2;SDS_P1;SDS_P2;PMS_P1;PMS_P2;Temp;Humidity;BMP_temperature;BMP_pressure;BME280_temperature;BME280_humidity;BME280_pressure;Samples;Min_cycle;Max_cycle;Signal;HPM_P1;HPM_P2
2023/09/29 00:00:27;;;;;;;22.30;5.32;;;16.00;99.90;;;;;;5112635;28;20031;-47
2023/09/29 00:02:55;;;;;;;23.02;5.55;;;16.10;99.90;;;;;;5113130;28;20423;-46
2023/09/29 00:05:21;;;;;;;21.42;5.70;;;16.10;99.90;;;;;;5094373;28;20088;-46
2023/09/29 00:07:47;;;;;;;20.83;6.25;;;16.00;99.90;;;;;;5112752;27;20054;-48
2023/09/29 00:10:17;;;;;;;20.23;6.30;;;16.10;99.90;;;;;;5112617;28;20048;-46
2023/09/29 00:12:44;;;;;;;19.38;5.13;;;16.10;99.90;;;;;;5094289;28;20051;-46
2023/09/29 00:15:10;;;;;;;22.00;5.72;;;16.10;99.90;;;;;;5112453;28;20078;-45
2023/09/29 00:17:37;;;;;;;16.15;5.70;;;16.10;99.90;;;;;;5112503;28;20035;-47
2023/09/29 00:20:23;;;;;;;29.08;5.68;;;16.20;99.90;;;;;;5112579;28;20027;-47
2023/09/29 00:22:54;;;;;;;23.58;5.88;;;16.10;99.90;;;;;;5094239;28;20115;-48
2023/09/29 00:25:20;;;;;;;21.33;5.63;;;16.10;99.90;;;;;;5109289;28;20028;-47
2023/09/29 00:27:46;;;;;;;21.10;5.68;;;16.10;99.90;;;;;;5112072;28;20042;-48
2023/09/29 00:30:14;;;;;;;19.27;5.82;;;16.10;99.90;;;;;;5112319;28;20043;-49
2023/09/29 00:32:51;;;;;;;18.38;5.05;;;16.10;99.90;;;;;;5110080;28;20085;-50
2023/09/29 00:37:49;;;;;;;20.30;5.75;;;16.10;99.90;;;;;;5112269;28;20054;-48
2023/09/29 00:40:15;;;;;;;21.98;5.55;;;16.10;99.90;;;;;;5112317;28;20138;-46
2023/09/29 00:42:44;;;;;;;27.58;6.70;;;16.10;99.90;;;;;;5112394;28;20564;-47
2023/09/29 00:45:11;;;;;;;17.58;5.57;;;16.10;99.90;;;;;;5112249;28;20047;-47
2023/09/29 00:47:38;;;;;;;23.50;6.65;;;16.10;99.90;;;;;;5112023;28;20493;-48
2023/09/29 00:50:09;;;;;;;24.00;6.80;;;16.10;99.90;;;;;;5111972;28;20058;-46
2023/09/29 00:52:39;;;;;;;16.05;4.97;;;16.10;99.90;;;;;;5111848;28;20032;-47
2023/09/29 00:55:11;;;;;;;21.95;5.90;;;16.10;99.90;;;;;;5112328;28;20104;-47
2023/09/29 00:57:47;;;;;;;20.17;5.43;;;16.10;99.90;;;;;;5076902;28;20035;-48
2023/09/29 01:00:21;;;;;;;19.73;5.60;;;16.10;99.90;;;;;;5112079;28;20070;-47
2023/09/29 01:02:48;;;;;;;20.50;5.18;;;16.10;99.90;;;;;;5098543;28;20043;-49
2023/09/29 01:05:13;;;;;;;16.10;4.72;;;16.10;99.90;;;;;;5111709;28;20047;-48
2023/09/29 01:07:41;;;;;;;25.42;5.32;;;16.10;99.90;;;;;;5111833;28;20397;-47
2023/09/29 01:10:07;;;;;;;18.23;5.47;;;16.10;99.90;;;;;;5111748;28;20055;-46
2023/09/29 01:12:35;;;;;;;19.77;5.35;;;16.10;99.90;;;;;;5093136;28;20091;-49
2023/09/29 01:15:00;;;;;;;16.85;5.03;;;16.00;99.90;;;;;;5111923;28;20047;-45
2023/09/29 01:17:26;;;;;;;19.13;5.28;;;16.10;99.90;;;;;;5093454;28;20050;-53
2023/09/29 01:19:51;;;;;;;22.40;5.53;;;16.10;99.90;;;;;;5112012;28;20036;-51
2023/09/29 01:22:18;;;;;;;20.55;6.03;;;16.00;99.90;;;;;;5111772;28;20367;-52
2023/09/29 01:24:45;;;;;;;20.17;5.80;;;16.00;99.90;;;;;;5111534;28;20035;-52
2023/09/29 01:27:11;;;;;;;18.98;5.35;;;16.00;99.90;;;;;;5111773;28;20054;-49
2023/09/29 01:29:36;;;;;;;21.58;5.18;;;16.00;99.90;;;;;;5111872;28;20043;-52
2023/09/29 01:32:02;;;;;;;21.67;5.15;;;16.00;99.90;;;;;;5093722;28;20557;-50
2023/09/29 01:34:31;;;;;;;15.27;5.15;;;15.80;99.90;;;;;;5111425;28;20381;-51
2023/09/29 01:36:59;;;;;;;15.27;5.78;;;16.00;99.90;;;;;;5112202;28;20549;-52
2023/09/29 01:39:25;;;;;;;20.40;5.60;;;15.90;99.90;;;;;;5111713;28;20073;-52
2023/09/29 01:41:52;;;;;;;32.95;6.22;;;15.90;99.90;;;;;;5111606;28;20035;-49
2023/09/29 01:44:17;;;;;;;16.38;4.80;;;15.90;99.90;;;;;;5093511;28;20055;-48
2023/09/29 01:46:43;;;;;;;22.83;6.63;;;15.90;99.90;;;;;;5111434;28;20036;-52
2023/09/29 01:49:09;;;;;;;17.13;5.95;;;15.90;99.90;;;;;;5111248;28;20061;-48
2023/09/29 01:51:35;;;;;;;22.33;6.13;;;15.90;99.90;;;;;;5111516;28;20046;-50
2023/09/29 01:54:00;;;;;;;26.80;7.10;;;15.90;99.90;;;;;;5111595;28;20039;-49
2023/09/29 01:56:26;;;;;;;17.40;5.63;;;15.90;99.90;;;;;;5111322;28;20046;-50
2023/09/29 01:58:51;;;;;;;28.05;5.82;;;16.00;99.90;;;;;;5111480;28;20043;-47
2023/09/29 02:01:17;;;;;;;17.25;5.68;;;15.90;99.90;;;;;;5111287;28;20047;-51
2023/09/29 02:03:45;;;;;;;20.88;6.30;;;16.00;99.90;;;;;;5112292;28;20031;-51
2023/09/29 02:06:10;;;;;;;18.15;5.30;;;16.00;99.90;;;;;;5115142;28;20511;-49
2023/09/29 02:08:36;;;;;;;19.55;5.53;;;15.90;99.90;;;;;;5109423;28;20055;-50
2023/09/29 02:11:02;;;;;;;21.55;6.35;;;15.90;99.90;;;;;;5094727;28;20040;-49
2023/09/29 02:13:28;;;;;;;16.88;6.38;;;16.00;99.90;;;;;;5094314;28;20472;-51
2023/09/29 02:15:54;;;;;;;18.30;5.47;;;15.90;99.90;;;;;;5094487;28;20047;-50
2023/09/29 02:18:20;;;;;;;22.17;6.22;;;16.00;99.90;;;;;;5094357;28;20047;-47
2023/09/29 02:20:48;;;;;;;23.20;5.25;;;16.00;99.90;;;;;;5094643;28;20028;-48
2023/09/29 02:23:14;;;;;;;20.42;5.47;;;16.00;99.90;;;;;;5094241;28;20036;-48
2023/09/29 02:25:41;;;;;;;16.08;4.95;;;16.00;99.90;;;;;;5094413;28;20040;-51
2023/09/29 02:28:09;;;;;;;17.92;6.18;;;16.00;99.90;;;;;;5094300;28;20036;-50
2023/09/29 02:30:36;;;;;;;20.88;6.05;;;16.00;99.90;;;;;;5094025;28;20035;-49
2023/09/29 02:33:02;;;;;;;19.65;5.53;;;16.00;99.90;;;;;;5094085;28;20476;-50
2023/09/29 02:35:28;;;;;;;19.85;5.35;;;16.00;99.90;;;;;;5094190;28;20134;-51
2023/09/29 02:37:54;;;;;;;20.85;5.82;;;16.00;99.90;;;;;;5094062;28;20032;-50
2023/09/29 02:40:22;;;;;;;16.35;5.22;;;16.00;99.90;;;;;;5076024;28;20065;-52
2023/09/29 02:42:47;;;;;;;16.55;5.05;;;16.00;99.90;;;;;;5093769;28;20075;-49
2023/09/29 02:45:14;;;;;;;16.90;5.40;;;16.00;99.90;;;;;;5093837;28;20090;-51
2023/09/29 02:47:41;;;;;;;15.30;5.15;;;16.00;99.90;;;;;;5094229;28;20039;-50
2023/09/29 02:50:11;;;;;;;14.55;5.20;;;16.10;99.90;;;;;;5094050;28;20052;-50
2023/09/29 02:52:40;;;;;;;23.08;6.10;;;16.00;99.90;;;;;;5093857;28;20061;-47
2023/09/29 02:55:12;;;;;;;20.30;5.80;;;16.00;99.90;;;;;;5093575;28;20036;-48
2023/09/29 02:57:38;;;;;;;15.77;5.03;;;16.00;99.90;;;;;;5093616;28;20048;-52
2023/09/29 03:00:10;;;;;;;15.52;4.25;;;16.00;99.90;;;;;;5075349;28;20073;-50
2023/09/29 03:02:35;;;;;;;18.63;5.00;;;16.00;99.90;;;;;;5093789;28;20039;-52
2023/09/29 03:05:01;;;;;;;20.33;4.70;;;16.10;99.90;;;;;;5093897;28;20036;-48
2023/09/29 03:07:27;;;;;;;18.23;4.82;;;16.00;99.90;;;;;;5093422;28;20046;-50
2023/09/29 03:09:55;;;;;;;22.42;5.75;;;16.00;99.90;;;;;;5109535;28;20109;-52
2023/09/29 03:12:21;;;;;;;15.65;5.22;;;16.10;99.90;;;;;;5111515;28;20047;-48
2023/09/29 03:14:47;;;;;;;23.90;5.57;;;16.00;99.90;;;;;;5095461;28;20122;-51
2023/09/29 03:17:13;;;;;;;18.40;5.05;;;16.10;99.90;;;;;;5110965;28;20032;-48
2023/09/29 03:19:38;;;;;;;19.45;5.00;;;16.10;99.90;;;;;;5103755;28;20500;-49
2023/09/29 03:22:04;;;;;;;17.67;4.68;;;16.00;99.90;;;;;;5113532;28;20111;-50
2023/09/29 03:24:29;;;;;;;24.02;4.63;;;16.00;99.90;;;;;;5095096;28;20127;-48
2023/09/29 03:26:55;;;;;;;13.43;4.75;;;16.00;99.90;;;;;;5113423;28;20443;-52
2023/09/29 03:29:21;;;;;;;13.68;4.40;;;16.00;99.90;;;;;;5113483;28;20036;-51
2023/09/29 03:31:47;;;;;;;18.52;4.82;;;16.00;99.90;;;;;;5113583;28;20046;-51
2023/09/29 03:34:14;;;;;;;18.08;5.15;;;16.00;99.90;;;;;;5113435;28;20606;-53
2023/09/29 03:36:40;;;;;;;17.23;4.40;;;16.00;99.90;;;;;;5095094;28;20101;-52
2023/09/29 03:39:07;;;;;;;18.85;4.93;;;16.00;99.90;;;;;;5113514;28;20040;-52
2023/09/29 03:41:33;;;;;;;15.27;4.40;;;16.00;99.90;;;;;;5099256;28;20055;-51
2023/09/29 03:43:59;;;;;;;16.38;4.45;;;16.00;99.90;;;;;;5098802;28;20050;-53
2023/09/29 03:46:25;;;;;;;16.70;4.70;;;16.00;99.90;;;;;;5092771;28;20048;-51
2023/09/29 03:48:52;;;;;;;15.40;5.18;;;16.00;99.90;;;;;;5092593;28;20092;-50
2023/09/29 03:51:24;;;;;;;23.15;5.07;;;16.20;99.90;;;;;;5092782;28;20036;-53
2023/09/29 03:53:52;;;;;;;15.18;4.70;;;16.10;99.90;;;;;;5074345;28;20036;-49
2023/09/29 03:56:18;;;;;;;19.52;4.68;;;16.20;99.90;;;;;;5092478;28;20032;-49
2023/09/29 03:58:45;;;;;;;16.33;5.32;;;16.20;99.90;;;;;;5092584;28;20043;-50
2023/09/29 04:01:10;;;;;;;16.20;4.75;;;16.30;99.90;;;;;;5074281;28;20039;-47
2023/09/29 04:03:36;;;;;;;17.45;5.30;;;16.20;99.90;;;;;;5092771;28;20174;-51
2023/09/29 04:06:02;;;;;;;15.98;5.22;;;16.30;99.90;;;;;;5092546;28;20737;-51
2023/09/29 04:08:29;;;;;;;23.48;5.65;;;16.30;99.90;;;;;;5092209;28;20129;-52
2023/09/29 04:10:55;;;;;;;15.38;4.82;;;16.30;99.90;;;;;;5074274;28;20047;-53
2023/09/29 04:13:21;;;;;;;13.85;5.30;;;16.30;99.90;;;;;;5092164;28;20035;-51
2023/09/29 04:15:46;;;;;;;18.23;5.03;;;16.30;99.90;;;;;;5092038;28;20043;-50
2023/09/29 04:18:12;;;;;;;16.92;5.63;;;16.30;99.90;;;;;;5092092;28;20032;-50
2023/09/29 04:20:38;;;;;;;20.40;5.53;;;16.30;99.90;;;;;;5092274;28;20039;-48
2023/09/29 04:23:06;;;;;;;12.45;4.50;;;16.40;99.90;;;;;;5091901;28;20031;-49
2023/09/29 04:25:32;;;;;;;17.38;5.00;;;16.40;99.90;;;;;;5074104;28;20040;-51
2023/09/29 04:27:57;;;;;;;19.95;5.57;;;16.30;99.90;;;;;;5073121;28;20055;-51
2023/09/29 04:30:23;;;;;;;19.52;5.05;;;16.40;99.90;;;;;;5092169;28;20063;-50
2023/09/29 04:32:49;;;;;;;18.38;5.80;;;16.30;99.90;;;;;;5091798;28;20036;-51
2023/09/29 04:35:15;;;;;;;14.93;4.95;;;16.30;99.90;;;;;;5091919;28;20032;-51
2023/09/29 04:37:41;;;;;;;15.95;5.43;;;16.30;99.90;;;;;;5092254;28;20105;-51
2023/09/29 04:40:07;;;;;;;17.55;5.47;;;16.30;99.90;;;;;;5091624;28;20059;-52
2023/09/29 04:42:34;;;;;;;19.20;5.45;;;16.40;99.90;;;;;;5091765;28;20058;-50
2023/09/29 04:45:00;;;;;;;15.70;5.22;;;16.40;99.90;;;;;;5091765;28;20040;-49
2023/09/29 04:47:27;;;;;;;16.73;5.80;;;16.30;99.90;;;;;;5091565;28;20438;-50
2023/09/29 04:49:53;;;;;;;19.60;5.65;;;16.40;99.90;;;;;;5091631;28;20114;-49
2023/09/29 04:52:19;;;;;;;18.85;6.38;;;16.40;99.90;;;;;;5091594;28;20517;-51
2023/09/29 04:54:45;;;;;;;21.27;6.15;;;16.30;99.90;;;;;;5091607;28;20032;-52
2023/09/29 04:57:10;;;;;;;20.88;6.43;;;16.30;99.90;;;;;;5091791;28;20117;-50
2023/09/29 04:59:36;;;;;;;13.27;5.28;;;16.30;99.90;;;;;;5091710;28;20079;-50
2023/09/29 05:02:01;;;;;;;25.23;5.78;;;16.30;99.90;;;;;;5091725;28;20085;-49
2023/09/29 05:04:27;;;;;;;14.73;5.43;;;16.30;99.90;;;;;;5091712;28;20036;-49
2023/09/29 05:06:53;;;;;;;18.73;5.97;;;16.40;99.90;;;;;;5091340;28;20040;-51
2023/09/29 05:09:19;;;;;;;18.85;6.35;;;16.30;99.90;;;;;;5091286;28;20052;-49
2023/09/29 05:11:45;;;;;;;18.50;5.88;;;16.30;99.90;;;;;;5091387;28;20032;-50
2023/09/29 05:14:11;;;;;;;14.63;6.30;;;16.30;99.90;;;;;;5073393;28;20552;-49
2023/09/29 05:16:37;;;;;;;18.75;6.03;;;16.30;99.90;;;;;;5091214;28;20040;-48
2023/09/29 05:19:02;;;;;;;17.55;5.93;;;16.30;99.90;;;;;;5073249;28;20099;-50
2023/09/29 05:21:28;;;;;;;16.17;5.90;;;16.30;99.90;;;;;;5091301;28;20162;-51
2023/09/29 05:23:54;;;;;;;14.50;5.63;;;16.30;99.90;;;;;;5091417;28;20036;-52
2023/09/29 05:26:19;;;;;;;17.55;5.78;;;16.30;99.90;;;;;;5073348;28;20055;-52
2023/09/29 05:28:45;;;;;;;12.50;5.00;;;16.40;99.90;;;;;;5091370;28;20123;-49
2023/09/29 05:31:11;;;;;;;17.63;6.05;;;16.40;99.90;;;;;;5091372;28;20111;-47
2023/09/29 05:33:36;;;;;;;17.02;6.80;;;16.40;99.90;;;;;;5091251;28;20481;-49
2023/09/29 05:36:03;;;;;;;17.75;6.25;;;16.40;99.90;;;;;;5072726;28;20044;-48
2023/09/29 05:38:29;;;;;;;19.75;6.25;;;16.40;99.90;;;;;;5091632;28;20049;-51
2023/09/29 05:40:54;;;;;;;13.80;5.75;;;16.40;99.90;;;;;;5095493;28;20111;-52
2023/09/29 05:43:20;;;;;;;20.45;6.25;;;16.50;99.90;;;;;;5095219;28;20163;-53
2023/09/29 05:45:47;;;;;;;19.60;6.03;;;16.40;99.90;;;;;;5077260;28;20469;-50
2023/09/29 05:48:13;;;;;;;17.88;5.82;;;16.40;99.90;;;;;;5094748;28;20044;-52
2023/09/29 05:50:38;;;;;;;17.73;5.97;;;16.50;99.90;;;;;;5094886;28;20032;-49
2023/09/29 05:53:04;;;;;;;14.02;5.40;;;16.50;99.90;;;;;;5086935;28;20454;-53
2023/09/29 05:55:31;;;;;;;18.52;6.10;;;16.50;99.90;;;;;;5094839;28;20044;-50
2023/09/29 05:57:57;;;;;;;16.25;5.32;;;16.50;99.90;;;;;;5094572;28;20082;-51
2023/09/29 06:00:24;;;;;;;19.85;6.22;;;16.50;99.90;;;;;;5094784;28;20063;-51
2023/09/29 06:02:50;;;;;;;17.15;6.43;;;16.50;99.90;;;;;;5094737;28;20044;-51
2023/09/29 06:05:16;;;;;;;15.30;6.05;;;16.50;99.90;;;;;;5094427;28;20042;-49
2023/09/29 06:07:41;;;;;;;19.77;6.60;;;16.50;99.90;;;;;;5094904;28;20044;-48
2023/09/29 06:10:08;;;;;;;14.45;5.38;;;16.50;99.90;;;;;;5094389;28;20044;-51
2023/09/29 06:12:33;;;;;;;21.85;7.00;;;16.50;99.90;;;;;;5094567;28;20094;-53
2023/09/29 06:14:59;;;;;;;13.88;5.35;;;16.50;99.90;;;;;;5094508;28;20477;-48
2023/09/29 06:17:25;;;;;;;23.20;6.60;;;16.50;99.90;;;;;;5094185;28;20051;-50
2023/09/29 06:19:51;;;;;;;15.70;6.07;;;16.50;99.90;;;;;;5094390;28;20094;-51
2023/09/29 06:22:18;;;;;;;16.08;6.65;;;16.50;99.90;;;;;;5094552;28;20429;-49
2023/09/29 06:24:44;;;;;;;16.70;5.05;;;16.50;99.90;;;;;;5076002;28;20132;-52
2023/09/29 06:27:13;;;;;;;12.02;5.40;;;16.50;99.90;;;;;;5094453;28;20043;-48
2023/09/29 06:29:39;;;;;;;18.17;6.75;;;16.60;99.90;;;;;;5094079;28;20550;-47
2023/09/29 06:32:06;;;;;;;13.90;5.47;;;16.60;99.90;;;;;;5094217;28;20044;-52
2023/09/29 06:34:32;;;;;;;22.08;6.25;;;16.60;99.90;;;;;;5094255;28;20106;-50
2023/09/29 06:36:58;;;;;;;13.93;5.85;;;16.60;99.90;;;;;;5094327;28;20047;-49
2023/09/29 06:39:23;;;;;;;16.05;5.07;;;16.60;99.90;;;;;;5075783;28;20032;-51
2023/09/29 06:41:49;;;;;;;14.18;5.25;;;16.70;99.90;;;;;;5094052;28;20069;-51
2023/09/29 06:44:14;;;;;;;16.77;6.18;;;16.70;99.90;;;;;;5094231;28;20043;-48
2023/09/29 06:46:40;;;;;;;12.65;5.53;;;16.70;99.90;;;;;;5093714;28;20524;-51
2023/09/29 06:49:07;;;;;;;13.02;5.85;;;16.70;99.90;;;;;;5093612;28;20047;-49
2023/09/29 06:51:34;;;;;;;18.45;6.63;;;16.70;99.90;;;;;;5093640;28;20447;-52
2023/09/29 06:53:59;;;;;;;15.80;6.32;;;16.80;99.90;;;;;;5075748;28;20485;-49
2023/09/29 06:56:25;;;;;;;13.45;6.00;;;16.80;99.90;;;;;;5093666;28;20047;-51
2023/09/29 06:58:51;;;;;;;13.95;6.32;;;16.80;99.90;;;;;;5093581;28;20032;-49
2023/09/29 07:01:17;;;;;;;16.17;6.03;;;16.80;99.90;;;;;;5093553;28;20036;-50
2023/09/29 07:03:45;;;;;;;11.15;5.53;;;16.60;99.90;;;;;;5093644;28;20063;-50
2023/09/29 07:06:11;;;;;;;14.07;6.50;;;16.90;99.90;;;;;;5093796;28;20052;-52
2023/09/29 07:08:36;;;;;;;16.38;6.15;;;17.00;99.90;;;;;;5096642;28;20052;-50
2023/09/29 07:11:02;;;;;;;16.52;6.05;;;17.00;99.90;;;;;;5113927;28;20047;-48
2023/09/29 07:13:28;;;;;;;19.08;5.90;;;17.10;99.90;;;;;;5113766;28;20095;-53
2023/09/29 07:15:54;;;;;;;13.57;6.00;;;17.30;99.90;;;;;;5113708;28;20128;-49
2023/09/29 07:18:21;;;;;;;17.10;6.30;;;17.40;99.90;;;;;;5113781;28;20035;-53
2023/09/29 07:20:50;;;;;;;12.00;5.93;;;17.50;99.90;;;;;;5077916;28;20073;-49
2023/09/29 07:23:16;;;;;;;10.27;5.65;;;17.60;99.90;;;;;;5113604;28;20043;-48
2023/09/29 07:25:42;;;;;;;14.05;5.65;;;17.60;99.90;;;;;;5113538;28;20446;-48
2023/09/29 07:28:16;;;;;;;14.77;6.22;;;17.60;99.90;;;;;;5113555;28;20119;-49
2023/09/29 07:30:42;;;;;;;14.20;6.10;;;17.70;99.90;;;;;;5113332;28;20472;-47
2023/09/29 07:33:09;;;;;;;12.05;5.15;;;17.60;99.90;;;;;;5095482;28;20124;-50
2023/09/29 07:35:35;;;;;;;13.27;6.22;;;17.60;99.90;;;;;;5095333;28;20035;-51
2023/09/29 07:38:01;;;;;;;9.68;5.32;;;17.60;99.90;;;;;;5094933;28;20027;-50
2023/09/29 07:40:26;;;;;;;9.60;5.38;;;17.70;99.90;;;;;;5113245;28;20054;-48
2023/09/29 07:42:52;;;;;;;10.63;5.28;;;17.80;99.90;;;;;;5113121;28;20047;-51
2023/09/29 07:45:19;;;;;;;13.70;5.07;;;17.90;99.90;;;;;;5113307;28;20059;-49
2023/09/29 07:47:45;;;;;;;15.90;5.00;;;18.00;99.90;;;;;;5113006;28;20122;-52
2023/09/29 07:50:11;;;;;;;8.23;4.50;;;18.00;99.90;;;;;;5113093;28;20114;-48
2023/09/29 07:52:38;;;;;;;11.45;4.90;;;18.10;99.90;;;;;;5112897;28;20039;-50
2023/09/29 07:55:09;;;;;;;7.60;4.60;;;18.10;99.90;;;;;;5112839;28;20043;-52
2023/09/29 07:57:35;;;;;;;10.50;5.22;;;18.20;99.90;;;;;;5094574;28;20071;-50
2023/09/29 08:00:01;;;;;;;8.15;4.10;;;18.40;99.90;;;;;;5113004;28;20074;-52
2023/09/29 08:02:27;;;;;;;13.48;5.95;;;18.60;99.90;;;;;;5112286;28;20739;-48
2023/09/29 08:04:53;;;;;;;9.52;4.68;;;18.80;99.90;;;;;;5094633;28;20047;-51
2023/09/29 08:07:22;;;;;;;8.43;4.30;;;19.00;99.90;;;;;;5112712;28;20396;-51
2023/09/29 08:09:48;;;;;;;;;;;19.10;99.90;;;;;;5099647;28;20058;-51
2023/09/29 08:12:14;;;;;;;11.45;3.97;;;19.30;99.90;;;;;;5092501;28;19921;-52
2023/09/29 08:14:40;;;;;;;9.05;4.10;;;19.50;99.90;;;;;;5092143;28;20035;-51
2023/09/29 08:17:06;;;;;;;8.57;4.05;;;19.60;99.90;;;;;;5092241;28;20039;-52
2023/09/29 08:19:33;;;;;;;7.80;3.45;;;19.60;99.90;;;;;;5092095;28;20066;-52
2023/09/29 08:21:59;;;;;;;9.63;4.05;;;19.70;99.90;;;;;;5092237;28;20485;-52
2023/09/29 08:24:25;;;;;;;7.75;3.58;;;19.80;99.90;;;;;;5057243;28;20055;-50
2023/09/29 08:26:51;;;;;;;9.40;4.05;;;19.80;99.90;;;;;;5092011;28;20131;-51
2023/09/29 08:29:17;;;;;;;8.20;3.90;;;19.90;99.90;;;;;;5092076;28;20048;-50
2023/09/29 08:31:44;;;;;;;14.73;3.75;;;19.90;99.90;;;;;;5073477;28;20136;-47
2023/09/29 08:34:09;;;;;;;9.18;3.75;;;19.90;99.90;;;;;;5092400;28;20047;-50
2023/09/29 08:36:35;;;;;;;7.18;3.55;;;19.90;99.90;;;;;;5091946;28;20040;-51
2023/09/29 08:39:01;;;;;;;12.30;3.42;;;20.00;99.90;;;;;;5091950;28;20039;-52
2023/09/29 08:41:29;;;;;;;5.30;3.58;;;20.00;99.90;;;;;;5091463;28;20032;-49
2023/09/29 08:43:55;;;;;;;7.78;3.55;;;20.10;99.90;;;;;;5091868;28;20114;-51
2023/09/29 08:46:21;;;;;;;9.85;3.15;;;20.10;99.90;;;;;;5091732;28;20114;-52
2023/09/29 08:48:48;;;;;;;7.38;3.30;;;20.20;99.90;;;;;;5091665;28;20119;-52
2023/09/29 08:51:15;;;;;;;13.82;3.97;;;20.40;99.90;;;;;;5091561;28;20487;-52
2023/09/29 08:53:44;;;;;;;6.60;3.05;;;20.50;99.90;;;;;;5091577;28;20036;-50
2023/09/29 08:56:12;;;;;;;6.70;3.08;;;20.60;99.90;;;;;;5091625;28;20040;-49
2023/09/29 08:58:39;;;;;;;8.80;3.58;;;20.70;99.90;;;;;;5091906;28;20082;-52
2023/09/29 09:01:05;;;;;;;12.40;3.22;;;20.90;99.90;;;;;;5091744;28;20390;-53
2023/09/29 09:03:31;;;;;;;6.90;3.50;;;21.10;99.90;;;;;;5091437;28;20047;-48
2023/09/29 09:05:57;;;;;;;7.72;3.10;;;21.30;99.90;;;;;;5091589;28;20077;-49
2023/09/29 09:08:24;;;;;;;7.80;3.53;;;21.30;99.90;;;;;;5092860;28;20040;-48
2023/09/29 09:11:00;;;;;;;7.03;2.88;;;21.30;99.90;;;;;;5111932;28;20052;-50
2023/09/29 09:13:26;;;;;;;5.70;2.88;;;21.20;99.90;;;;;;5113785;28;20044;-50
2023/09/29 09:15:59;;;;;;;5.18;3.22;;;21.00;99.90;;;;;;5116006;28;20042;-51
2023/09/29 09:18:27;;;;;;;8.23;2.90;;;21.00;99.90;;;;;;5116006;28;20122;-48
2023/09/29 09:20:53;;;;;;;;;;;21.00;99.90;;;;;;5116296;28;20141;-49
2023/09/29 09:23:19;;;;;;;7.13;3.30;;;21.00;99.90;;;;;;5116096;28;19916;-51
2023/09/29 09:25:45;;;;;;;7.75;3.28;;;21.00;99.90;;;;;;5097716;28;20031;-52
2023/09/29 09:28:18;;;;;;;6.85;3.17;;;21.10;99.90;;;;;;5115961;28;20488;-51
2023/09/29 09:30:51;;;;;;;6.13;3.10;;;21.20;99.90;;;;;;5115652;28;20123;-52
2023/09/29 09:33:21;;;;;;;8.20;2.95;;;21.20;99.90;;;;;;5115823;28;20047;-50
2023/09/29 09:35:50;;;;;;;5.72;3.30;;;21.30;99.90;;;;;;5115611;28;20118;-48
2023/09/29 09:38:15;;;;;;;7.13;3.03;;;21.30;99.90;;;;;;5115592;28;20473;-51
2023/09/29 09:40:45;;;;;;;7.95;2.90;;;21.30;99.90;;;;;;5115646;28;20034;-49
2023/09/29 09:43:11;;;;;;;7.68;3.00;;;21.40;99.90;;;;;;5115500;28;20039;-50
2023/09/29 09:45:39;;;;;;;7.70;2.95;;;21.30;99.90;;;;;;5115485;28;20106;-48
2023/09/29 09:48:09;;;;;;;6.32;2.92;;;21.30;99.90;;;;;;5115362;28;20047;-52
2023/09/29 09:50:38;;;;;;;4.70;2.70;;;21.20;99.90;;;;;;5115592;28;20081;-47
2023/09/29 09:53:08;;;;;;;6.50;2.88;;;21.20;99.90;;;;;;5115434;28;20039;-50
2023/09/29 09:55:39;;;;;;;6.88;2.80;;;21.20;99.90;;;;;;5115235;28;20485;-49
2023/09/29 09:58:09;;;;;;;6.63;2.80;;;21.20;99.90;;;;;;5115139;28;20122;-50
2023/09/29 10:00:44;;;;;;;10.27;3.00;;;21.20;99.90;;;;;;5115322;28;20042;-53
2023/09/29 10:03:11;;;;;;;6.93;3.25;;;21.10;99.90;;;;;;5115278;28;20028;-52
2023/09/29 10:05:40;;;;;;;7.60;3.97;;;21.10;99.90;;;;;;5115002;28;20071;-51
2023/09/29 10:08:07;;;;;;;6.60;3.60;;;21.10;99.90;;;;;;5114990;28;20039;-52
2023/09/29 10:10:41;;;;;;;10.32;3.72;;;21.10;99.90;;;;;;5094751;28;20055;-51
2023/09/29 10:13:11;;;;;;;8.52;3.55;;;21.10;99.90;;;;;;5094359;28;20122;-53
2023/09/29 10:15:38;;;;;;;5.35;2.88;;;21.00;99.90;;;;;;5094566;28;20123;-49
2023/09/29 10:18:17;;;;;;;12.40;3.95;;;21.00;99.90;;;;;;5094399;28;20495;-51
2023/09/29 10:20:43;;;;;;;6.22;3.60;;;21.00;99.90;;;;;;5094355;28;20489;-51
2023/09/29 10:23:15;;;;;;;7.75;3.38;;;21.00;99.90;;;;;;5094374;28;20036;-48
2023/09/29 10:25:58;;;;;;;8.98;3.38;;;21.10;99.90;;;;;;5093518;28;20084;-52
2023/09/29 10:28:35;;;;;;;6.95;3.75;;;21.20;99.90;;;;;;5094327;28;20489;-51
2023/09/29 10:31:14;;;;;;;10.65;3.72;;;21.20;99.90;;;;;;5094039;28;20068;-53
2023/09/29 10:33:52;;;;;;;;;;;21.20;99.90;;;;;;5094634;28;20051;-51
2023/09/29 10:36:23;;;;;;;7.03;3.47;;;21.20;99.90;;;;;;5094443;28;20024;-50
2023/09/29 10:38:54;;;;;;;8.18;3.90;;;21.10;99.90;;;;;;5094356;28;20114;-51
2023/09/29 10:41:21;;;;;;;9.27;3.72;;;21.00;99.90;;;;;;5075925;28;20040;-49
2023/09/29 10:43:48;;;;;;;11.02;4.47;;;20.90;99.90;;;;;;5093549;28;20051;-50
2023/09/29 10:46:20;;;;;;;8.90;3.65;;;20.90;99.90;;;;;;5075680;28;20036;-51
2023/09/29 10:48:48;;;;;;;8.57;3.95;;;20.80;99.90;;;;;;5075602;28;20105;-48
2023/09/29 10:51:22;;;;;;;5.97;4.00;;;20.80;99.90;;;;;;5093852;28;20497;-52
2023/09/29 10:53:48;;;;;;;10.02;3.97;;;20.70;99.90;;;;;;5075947;28;20484;-50
2023/09/29 10:56:20;;;;;;;6.50;4.40;;;20.70;99.90;;;;;;5093992;28;20040;-50
2023/09/29 10:58:49;;;;;;;9.02;3.63;;;20.60;99.90;;;;;;5075389;28;20084;-49
2023/09/29 11:01:21;;;;;;;11.32;4.00;;;20.60;99.90;;;;;;5075576;28;20040;-48
2023/09/29 11:03:47;;;;;;;8.52;4.40;;;20.70;99.90;;;;;;5093616;28;20094;-51
2023/09/29 11:06:17;;;;;;;7.75;4.20;;;20.70;99.90;;;;;;5093872;28;20469;-53
2023/09/29 11:08:53;;;;;;;9.02;3.90;;;20.80;99.90;;;;;;5095472;28;20071;-51
2023/09/29 11:11:19;;;;;;;7.00;3.75;;;20.80;99.90;;;;;;5113991;28;20054;-52
2023/09/29 11:13:55;;;;;;;7.57;3.88;;;20.80;99.90;;;;;;5114019;28;20039;-51
2023/09/29 11:16:24;;;;;;;10.25;4.32;;;20.80;99.90;;;;;;5113866;28;20419;-50
2023/09/29 11:18:50;;;;;;;8.82;4.30;;;20.70;99.90;;;;;;5113679;28;20059;-52
2023/09/29 11:21:17;;;;;;;9.43;4.10;;;20.60;99.90;;;;;;5113696;28;20031;-48
2023/09/29 11:23:46;;;;;;;7.40;3.90;;;20.60;99.90;;;;;;5095340;28;20092;-48
2023/09/29 11:26:14;;;;;;;6.70;4.55;;;20.50;99.90;;;;;;5113999;28;20047;-50
2023/09/29 11:28:47;;;;;;;11.02;5.00;;;20.50;99.90;;;;;;5113802;28;20032;-50
2023/09/29 11:31:17;;;;;;;9.43;3.85;;;20.50;99.90;;;;;;5113419;28;20539;-50
2023/09/29 11:33:44;;;;;;;7.55;3.90;;;20.40;99.90;;;;;;5113783;28;20460;-51
2023/09/29 11:36:18;;;;;;;10.70;4.23;;;20.40;99.90;;;;;;5093989;28;20114;-50
2023/09/29 11:38:45;;;;;;;6.22;4.22;;;20.40;99.90;;;;;;5113530;28;20269;-51
2023/09/29 11:41:11;;;;;;;11.45;4.70;;;20.30;99.90;;;;;;5113322;28;20032;-50
2023/09/29 11:43:40;;;;;;;8.52;4.60;;;20.30;99.90;;;;;;5113060;28;20389;-49
2023/09/29 11:46:06;;;;;;;;;;;20.20;99.90;;;;;;5113851;28;20385;-50
2023/09/29 11:48:32;;;;;;;14.90;5.78;;;20.10;99.90;;;;;;5112876;28;19915;-51
2023/09/29 11:50:57;;;;;;;12.23;6.15;;;20.10;99.90;;;;;;5113160;28;20043;-51
2023/09/29 11:53:23;;;;;;;13.10;5.80;;;20.00;99.90;;;;;;5113018;28;20034;-48
2023/09/29 11:55:49;;;;;;;11.95;5.97;;;20.00;99.90;;;;;;5113235;28;20504;-51
2023/09/29 11:58:15;;;;;;;10.15;5.97;;;19.90;99.90;;;;;;5093999;28;20047;-48
2023/09/29 12:00:41;;;;;;;10.90;6.18;;;19.90;99.90;;;;;;5112745;28;20093;-51
2023/09/29 12:03:08;;;;;;;8.93;6.10;;;20.00;99.90;;;;;;5113033;28;20114;-49
2023/09/29 12:05:37;;;;;;;12.63;6.75;;;19.90;99.90;;;;;;5112904;28;20039;-53
2023/09/29 12:08:04;;;;;;;11.57;6.45;;;19.90;99.90;;;;;;5112866;28;20042;-51
2023/09/29 12:10:30;;;;;;;12.05;6.40;;;19.90;99.90;;;;;;5094268;28;20132;-51
2023/09/29 12:12:57;;;;;;;11.15;5.65;;;19.80;99.90;;;;;;5112901;28;20042;-48
2023/09/29 12:15:23;;;;;;;9.73;5.57;;;19.80;99.90;;;;;;5094132;28;20047;-50
2023/09/29 12:17:49;;;;;;;2.28;1.52;;;19.70;99.90;;;;;;5094554;28;20051;-48
2023/09/29 12:20:15;;;;;;;5.35;1.60;;;19.60;99.90;;;;;;5112689;28;20456;-51
2023/09/29 12:22:45;;;;;;;7.65;1.65;;;19.40;99.90;;;;;;5112783;28;20035;-46
2023/09/29 12:25:15;;;;;;;3.67;1.52;;;19.30;99.90;;;;;;5094402;28;20100;-50
2023/09/29 12:27:42;;;;;;;3.88;1.58;;;19.20;99.90;;;;;;5112229;28;20604;-48
2023/09/29 12:30:09;;;;;;;3.88;1.70;;;19.10;99.90;;;;;;5112331;28;20036;-50
2023/09/29 12:32:38;;;;;;;2.38;1.45;;;18.90;99.90;;;;;;5112318;28;20396;-50
2023/09/29 12:35:05;;;;;;;4.72;1.42;;;18.80;99.90;;;;;;5094074;28;20086;-49
2023/09/29 12:37:31;;;;;;;3.92;1.95;;;18.80;99.90;;;;;;5112489;28;20039;-48
2023/09/29 12:39:57;;;;;;;3.97;1.75;;;18.70;99.90;;;;;;5112260;28;20036;-52
2023/09/29 12:42:22;;;;;;;4.63;1.85;;;18.60;99.90;;;;;;5112200;28;20038;-49